createdAt,value
2023-06-11T00:02:22.851Z,19.90
2023-06-11T00:05:29.272Z,19.90
2023-06-11T00:08:31.150Z,19.80
2023-06-11T00:11:33.708Z,19.90
2023-06-11T00:14:35.528Z,19.80
2023-06-11T00:17:38.163Z,19.70
2023-06-11T00:20:41.721Z,19.70
2023-06-11T00:23:43.649Z,19.70
2023-06-11T00:26:45.457Z,19.60
2023-06-11T00:29:47.352Z,19.70
2023-06-11T00:32:49.434Z,19.60
2023-06-11T00:35:51.247Z,19.50
2023-06-11T00:38:52.985Z,19.50
2023-06-11T00:41:54.929Z,19.50
2023-06-11T00:44:56.836Z,19.50
2023-06-11T00:47:58.748Z,19.40
2023-06-11T00:51:00.642Z,19.40
2023-06-11T00:54:02.428Z,19.40
2023-06-11T00:57:04.464Z,19.30
2023-06-11T01:00:12.668Z,19.30
2023-06-11T01:03:19.227Z,19.30
2023-06-11T01:06:25.707Z,19.10
2023-06-11T01:09:30.541Z,19.10
2023-06-11T01:12:32.963Z,19.00
2023-06-11T01:15:34.826Z,19.00
2023-06-11T01:18:48.081Z,18.90
2023-06-11T01:21:57.229Z,18.80
2023-06-11T01:25:24.501Z,18.80
2023-06-11T01:28:32.042Z,18.70
2023-06-11T01:31:38.807Z,18.60
2023-06-11T01:34:42.750Z,18.60
2023-06-11T01:37:56.471Z,18.50
2023-06-11T01:41:03.132Z,18.50
2023-06-11T01:44:05.538Z,18.50
2023-06-11T01:47:07.658Z,18.50
2023-06-11T01:50:09.863Z,18.60
2023-06-11T01:53:13.797Z,18.50
2023-06-11T01:56:15.956Z,18.60
2023-06-11T01:59:18.960Z,18.50
2023-06-11T02:02:21.078Z,18.50
2023-06-11T02:05:23.125Z,18.50
2023-06-11T02:08:25.023Z,18.50
2023-06-11T02:11:26.955Z,18.50
2023-06-11T02:14:28.702Z,18.50
2023-06-11T02:17:30.501Z,18.40
2023-06-11T02:20:32.249Z,18.50
2023-06-11T02:23:34.029Z,18.40
2023-06-11T02:26:36.037Z,18.40
2023-06-11T02:29:37.929Z,18.50
2023-06-11T02:41:26.197Z,17.40
2023-06-11T02:44:28.171Z,18.30
2023-06-11T02:47:30.375Z,18.30
2023-06-11T02:50:32.271Z,18.30
2023-06-11T02:53:34.048Z,18.20
2023-06-11T02:56:35.913Z,18.30
2023-06-11T02:59:37.684Z,18.20
2023-06-11T03:02:40.110Z,18.30
2023-06-11T03:05:42.364Z,18.20
2023-06-11T03:08:44.404Z,18.10
2023-06-11T03:11:46.220Z,18.00
2023-06-11T03:14:47.987Z,18.10
2023-06-11T03:17:50.370Z,18.00
2023-06-11T03:20:52.438Z,18.10
2023-06-11T03:23:54.287Z,18.00
2023-06-11T03:26:56.905Z,17.90
2023-06-11T03:29:58.948Z,18.00
2023-06-11T03:33:01.698Z,18.00
2023-06-11T03:36:03.949Z,18.00
2023-06-11T03:39:05.904Z,18.00
2023-06-11T03:42:07.963Z,17.80
2023-06-11T03:45:10.979Z,17.80
2023-06-11T03:48:13.174Z,17.80
2023-06-11T03:51:16.007Z,17.80
2023-06-11T03:54:18.183Z,17.70
2023-06-11T03:57:19.947Z,17.80
2023-06-11T04:00:23.088Z,17.80
2023-06-11T04:03:25.584Z,17.70
2023-06-11T04:06:28.600Z,17.80
2023-06-11T04:09:30.651Z,17.80
2023-06-11T04:12:32.445Z,17.90
2023-06-11T04:18:58.573Z,18.00
2023-06-11T04:22:00.907Z,18.10
2023-06-11T04:25:02.915Z,18.10
2023-06-11T04:28:07.253Z,18.10
2023-06-11T04:31:12.944Z,18.20
2023-06-11T04:34:18.143Z,18.20
2023-06-11T04:37:21.058Z,18.20
2023-06-11T04:44:02.065Z,18.30
2023-06-11T04:47:06.460Z,18.40
2023-06-11T04:50:10.508Z,18.40
2023-06-11T04:53:14.211Z,18.50
2023-06-11T05:03:40.735Z,18.60
2023-06-11T05:06:47.097Z,18.70
2023-06-11T05:09:53.330Z,18.80
2023-06-11T05:12:55.583Z,18.80
2023-06-11T05:19:35.569Z,19.60
2023-06-11T05:22:38.638Z,19.00
2023-06-11T05:25:47.839Z,19.20
2023-06-11T05:28:52.610Z,19.20
2023-06-11T05:31:57.395Z,19.20
2023-06-11T05:34:59.540Z,19.40
2023-06-11T05:38:04.769Z,19.50
2023-06-11T05:41:06.859Z,19.60
2023-06-11T05:44:09.700Z,19.70
2023-06-11T05:47:12.564Z,19.80
2023-06-11T05:50:14.782Z,19.90
2023-06-11T05:53:16.794Z,19.90
2023-06-11T05:56:18.644Z,19.90
2023-06-11T05:59:20.518Z,20.00
2023-06-11T06:09:31.275Z,20.40
2023-06-11T06:12:34.491Z,20.40
2023-06-11T06:22:51.625Z,20.60
2023-06-11T06:25:53.626Z,20.70
2023-06-11T06:28:55.832Z,20.70
2023-06-11T06:31:58.270Z,21.00
2023-06-11T06:35:01.148Z,20.90
2023-06-11T06:44:57.075Z,21.00
2023-06-11T06:47:59.726Z,21.10
2023-06-11T07:01:36.076Z,21.50
2023-06-11T07:04:48.321Z,21.70
2023-06-11T07:07:55.160Z,22.00
2023-06-11T07:24:51.361Z,22.60
2023-06-11T07:27:54.563Z,22.60
2023-06-11T07:30:56.945Z,22.80
2023-06-11T07:37:12.062Z,23.00
2023-06-11T07:43:52.332Z,23.10
2023-06-11T07:46:58.180Z,23.30
2023-06-11T07:50:05.246Z,23.50
2023-06-11T07:53:15.709Z,23.70
2023-06-11T08:10:16.497Z,23.80
2023-06-11T08:20:49.268Z,24.50
2023-06-11T08:38:58.938Z,25.10
2023-06-11T08:52:29.988Z,25.70
2023-06-11T09:06:21.638Z,26.10
2023-06-11T09:27:00.403Z,26.70
2023-06-11T09:30:20.517Z,26.70
2023-06-11T09:33:24.066Z,27.00
2023-06-11T09:36:27.237Z,27.00
2023-06-11T09:39:29.919Z,27.20
2023-06-11T09:42:39.494Z,27.40
2023-06-11T09:45:42.443Z,27.40
2023-06-11T09:48:47.966Z,27.50
2023-06-11T09:51:51.273Z,27.60
2023-06-11T09:54:54.564Z,27.80
2023-06-11T09:57:58.069Z,28.10
2023-06-11T10:01:07.168Z,27.90
2023-06-11T10:04:09.722Z,28.40
2023-06-11T10:07:12.597Z,28.30
2023-06-11T10:10:18.872Z,28.50
2023-06-11T10:13:35.856Z,28.60
2023-06-11T10:16:38.132Z,28.60
2023-06-11T10:19:41.260Z,28.90
2023-06-11T10:22:45.605Z,29.10
2023-06-11T10:25:59.839Z,29.40
2023-06-11T10:29:05.501Z,29.80
2023-06-11T10:32:24.103Z,30.10
2023-06-11T10:35:33.447Z,30.30
2023-06-11T10:38:42.142Z,30.50
2023-06-11T10:41:44.733Z,30.60
2023-06-11T10:44:47.196Z,30.30
2023-06-11T10:47:55.685Z,30.90
2023-06-11T10:54:33.785Z,30.20
2023-06-11T10:57:35.672Z,30.70
2023-06-11T11:00:38.553Z,30.30
2023-06-11T11:14:34.928Z,30.50
2023-06-11T11:34:58.234Z,29.30
2023-06-11T11:38:00.029Z,28.60
2023-06-11T11:44:47.358Z,28.60
2023-06-11T11:48:05.037Z,28.20
2023-06-11T11:58:24.046Z,28.10
2023-06-11T12:01:38.467Z,28.10
2023-06-11T12:21:41.029Z,27.60
2023-06-11T12:24:42.899Z,27.80
2023-06-11T12:27:45.546Z,28.20
2023-06-11T12:41:07.408Z,27.70
2023-06-11T12:44:09.158Z,27.90
2023-06-11T12:47:10.986Z,27.70
2023-06-11T12:57:28.095Z,28.00
2023-06-11T13:00:31.271Z,28.40
2023-06-11T13:07:11.820Z,28.30
2023-06-11T13:10:29.424Z,28.10
2023-06-11T13:16:55.790Z,28.20
2023-06-11T13:19:57.640Z,28.40
2023-06-11T13:22:59.470Z,28.40
2023-06-11T13:26:01.761Z,28.30
2023-06-11T13:29:03.875Z,28.20
2023-06-11T13:32:06.236Z,28.10
2023-06-11T13:42:23.124Z,28.40
2023-06-11T13:48:50.130Z,28.30
2023-06-11T13:55:04.983Z,28.10
2023-06-11T13:58:07.574Z,28.20
2023-06-11T14:01:09.722Z,28.30
2023-06-11T14:04:15.030Z,28.40
2023-06-11T14:07:17.171Z,28.40
2023-06-11T14:10:19.734Z,28.60
2023-06-11T14:13:21.529Z,28.50
2023-06-11T14:16:23.381Z,28.60
2023-06-11T14:19:25.135Z,28.60
2023-06-11T14:22:26.832Z,28.90
2023-06-11T14:28:47.171Z,28.60
2023-06-11T14:31:49.221Z,28.60
2023-06-11T14:34:59.309Z,28.80
2023-06-11T14:38:04.096Z,28.60
2023-06-11T14:41:09.062Z,28.60
2023-06-11T14:44:12.239Z,28.60
2023-06-11T14:47:15.553Z,28.50
2023-06-11T14:50:17.499Z,28.40
2023-06-11T14:53:22.492Z,28.30
2023-06-11T14:56:24.502Z,28.50
2023-06-11T14:59:29.175Z,28.40
2023-06-11T15:02:37.012Z,28.40
2023-06-11T15:05:40.558Z,28.30
2023-06-11T15:08:45.045Z,28.20
2023-06-11T15:11:47.382Z,28.30
2023-06-11T15:14:52.172Z,28.10
2023-06-11T15:17:54.180Z,28.20
2023-06-11T15:20:59.641Z,28.50
2023-06-11T15:24:01.646Z,28.20
2023-06-11T15:27:04.080Z,28.10
2023-06-11T15:30:07.674Z,28.20
2023-06-11T15:33:09.740Z,28.10
2023-06-11T15:36:14.589Z,28.10
2023-06-11T15:39:19.283Z,27.90
2023-06-11T15:42:21.491Z,28.10
2023-06-11T15:45:23.722Z,28.30
2023-06-11T15:48:26.171Z,28.00
2023-06-11T15:51:30.321Z,27.90
2023-06-11T15:54:37.764Z,27.30
2023-06-11T15:57:42.968Z,28.20
2023-06-11T16:00:45.850Z,28.00
2023-06-11T16:03:47.962Z,28.20
2023-06-11T16:06:53.009Z,28.30
2023-06-11T16:09:56.283Z,28.10
2023-06-11T16:12:58.346Z,28.20
2023-06-11T16:16:00.597Z,28.30
2023-06-11T16:19:05.981Z,28.20
2023-06-11T16:22:12.346Z,28.70
2023-06-11T16:25:15.778Z,28.30
2023-06-11T16:28:18.621Z,28.70
2023-06-11T16:31:20.825Z,28.40
2023-06-11T16:34:25.693Z,28.70
2023-06-11T16:37:30.636Z,29.40
2023-06-11T16:40:35.346Z,30.00
2023-06-11T16:43:37.284Z,30.20
2023-06-11T16:46:39.521Z,29.60
2023-06-11T16:49:42.260Z,29.70
2023-06-11T16:52:46.176Z,28.80
2023-06-11T16:55:50.023Z,28.60
2023-06-11T16:58:55.394Z,28.30
2023-06-11T17:01:57.544Z,28.10
2023-06-11T17:04:59.463Z,27.90
2023-06-11T17:08:06.827Z,28.20
2023-06-11T17:11:11.856Z,28.10
2023-06-11T17:14:13.862Z,27.90
2023-06-11T17:17:20.398Z,28.00
2023-06-11T17:20:24.425Z,27.90
2023-06-11T17:23:26.370Z,27.90
2023-06-11T17:26:31.518Z,27.90
2023-06-11T17:29:34.559Z,28.10
2023-06-11T17:32:36.810Z,28.00
2023-06-11T17:35:39.744Z,28.20
2023-06-11T17:38:42.342Z,28.00
2023-06-11T17:41:45.727Z,27.90
2023-06-11T17:44:51.094Z,27.40
2023-06-11T17:48:11.385Z,27.80
2023-06-11T17:51:14.412Z,27.20
2023-06-11T17:54:18.255Z,27.10
2023-06-11T17:57:21.751Z,27.10
2023-06-11T18:00:23.961Z,27.00
2023-06-11T18:03:26.884Z,26.80
2023-06-11T18:06:28.839Z,26.10
2023-06-11T18:09:31.429Z,26.70
2023-06-11T18:12:33.441Z,26.70
2023-06-11T18:15:40.805Z,26.60
2023-06-11T18:18:44.299Z,26.60
2023-06-11T18:21:48.833Z,25.60
2023-06-11T18:24:53.786Z,26.60
2023-06-11T18:28:00.294Z,26.60
2023-06-11T18:31:02.867Z,26.40
2023-06-11T18:34:05.106Z,26.50
2023-06-11T18:37:12.885Z,26.40
2023-06-11T18:40:15.099Z,27.50
2023-06-11T18:43:20.516Z,26.10
2023-06-11T18:46:26.269Z,25.90
2023-06-11T18:49:30.418Z,26.00
2023-06-11T18:52:37.290Z,25.90
2023-06-11T18:55:39.231Z,25.80
2023-06-11T18:58:50.042Z,25.80
2023-06-11T19:01:52.404Z,25.70
2023-06-11T19:05:02.952Z,25.40
2023-06-11T19:08:07.375Z,25.40
2023-06-11T19:11:12.183Z,25.30
2023-06-11T19:14:19.744Z,23.90
2023-06-11T19:17:23.888Z,24.90
2023-06-11T19:20:59.696Z,24.90
2023-06-11T19:24:04.871Z,25.30
2023-06-11T19:27:14.603Z,24.70
2023-06-11T19:30:18.074Z,24.70
2023-06-11T19:33:20.010Z,24.50
2023-06-11T19:36:23.386Z,24.40
2023-06-11T19:39:28.062Z,24.40
2023-06-11T19:42:30.645Z,24.50
2023-06-11T19:45:35.329Z,24.10
2023-06-11T19:48:45.687Z,24.10
2023-06-11T19:51:47.818Z,24.00
2023-06-11T19:54:52.285Z,23.90
2023-06-11T19:57:56.825Z,23.90
2023-06-11T20:01:10.558Z,23.80
2023-06-11T20:04:12.584Z,22.80
2023-06-11T20:17:19.215Z,23.50
2023-06-11T20:20:21.039Z,23.40
2023-06-11T20:23:22.844Z,23.20
2023-06-11T20:26:24.640Z,23.10
2023-06-11T20:29:26.496Z,23.20
2023-06-11T20:32:28.344Z,23.00
2023-06-11T20:35:30.158Z,23.00
2023-06-11T20:38:31.923Z,22.90
2023-06-11T20:41:34.675Z,22.80
2023-06-11T20:44:36.615Z,22.70
2023-06-11T20:47:38.628Z,22.60
2023-06-11T20:50:40.638Z,22.50
2023-06-11T20:53:42.418Z,22.30
2023-06-11T20:56:46.386Z,22.30
2023-06-11T20:59:48.656Z,22.90
2023-06-11T21:02:54.881Z,22.10
2023-06-11T21:06:01.354Z,22.00
2023-06-11T21:09:03.405Z,21.90
2023-06-11T21:12:05.943Z,21.90
2023-06-11T21:15:14.340Z,21.80
2023-06-11T21:18:16.532Z,21.70
2023-06-11T21:21:18.894Z,21.80
2023-06-11T21:24:26.951Z,21.80
2023-06-11T21:27:28.821Z,21.60
2023-06-11T21:30:37.977Z,21.60
2023-06-11T21:33:40.667Z,21.40
2023-06-11T21:36:45.677Z,22.60
2023-06-11T21:39:48.517Z,21.40
2023-06-11T21:42:51.034Z,21.30
2023-06-11T21:46:00.063Z,21.30
2023-06-11T21:49:04.346Z,21.30
2023-06-11T21:52:08.099Z,21.10
2023-06-11T21:55:10.077Z,21.00
2023-06-11T21:58:15.170Z,20.70
2023-06-11T22:01:17.366Z,20.90
2023-06-11T22:04:19.347Z,20.90
2023-06-11T22:07:22.364Z,20.80
2023-06-11T22:10:24.460Z,20.70
2023-06-11T22:13:26.212Z,20.70
2023-06-11T22:16:29.026Z,20.70
2023-06-11T22:19:32.331Z,20.70
2023-06-11T22:22:38.898Z,20.60
2023-06-11T22:25:40.735Z,20.60
2023-06-11T22:28:42.503Z,20.60
2023-06-11T22:31:44.353Z,20.50
2023-06-11T22:34:46.213Z,20.40
2023-06-11T22:37:48.095Z,20.40
2023-06-11T22:40:49.910Z,20.30
2023-06-11T22:43:51.802Z,20.30
2023-06-11T22:46:53.644Z,20.20
2023-06-11T22:49:58.272Z,20.30
2023-06-11T22:53:00.588Z,20.20
2023-06-11T22:56:02.907Z,20.20
2023-06-11T22:59:04.773Z,20.10
2023-06-11T23:02:06.686Z,20.10
2023-06-11T23:05:09.000Z,20.00
2023-06-11T23:08:10.979Z,19.90
2023-06-11T23:11:12.739Z,19.90
2023-06-11T23:14:16.094Z,19.80
2023-06-11T23:17:20.503Z,19.70
2023-06-11T23:20:28.234Z,19.50
2023-06-11T23:23:33.467Z,19.70
2023-06-11T23:26:35.283Z,19.60
2023-06-11T23:29:37.277Z,19.50
2023-06-11T23:32:39.046Z,19.40
2023-06-11T23:35:41.504Z,19.30
2023-06-11T23:38:44.209Z,19.10
2023-06-11T23:41:46.212Z,19.10
2023-06-11T23:44:48.002Z,19.00
2023-06-11T23:47:49.877Z,18.90
2023-06-11T23:50:51.775Z,18.70
2023-06-11T23:53:53.816Z,18.80
2023-06-11T23:56:55.682Z,18.80
2023-06-11T23:59:57.442Z,18.70
